Time;durP1;ratioP1;P1;durP2;ratioP2;P2;SDS_P1;SDS_P2;PMS_P1;PMS_P2;Temp;Humidity;BMP_temperature;BMP_pressure;BME280_temperature;BME280_humidity;BME280_pressure;Samples;Min_cycle;Max_cycle;Signal;HPM_P1;HPM_P2
2022/05/05 00:01:56;;;;;;;17.02;14.85;;;10.50;99.90;;;;;;5071715;28;20028;-75
2022/05/05 00:04:22;;;;;;;27.48;19.15;;;10.40;99.90;;;;;;5072135;28;20520;-76
2022/05/05 00:06:51;;;;;;;19.42;16.33;;;10.10;99.90;;;;;;5072023;28;20032;-76
2022/05/05 00:09:16;;;;;;;20.90;17.33;;;10.10;99.90;;;;;;5071938;28;20087;-76
2022/05/05 00:14:33;;;;;;;17.08;14.20;;;10.00;99.90;;;;;;5072066;28;20047;-75
2022/05/05 00:17:03;;;;;;;15.60;14.00;;;10.00;99.90;;;;;;5071919;28;20036;-75
2022/05/05 00:19:32;;;;;;;16.70;15.10;;;10.20;99.90;;;;;;5071945;28;20444;-75
2022/05/05 00:21:58;;;;;;;16.00;14.40;;;10.30;99.90;;;;;;5071372;28;20091;-75
2022/05/05 00:24:23;;;;;;;14.52;13.05;;;10.30;99.90;;;;;;5070497;28;20120;-75
2022/05/05 00:26:49;;;;;;;15.35;13.73;;;10.40;99.90;;;;;;5071099;28;20036;-75
2022/05/05 00:29:15;;;;;;;20.95;17.13;;;10.50;99.90;;;;;;5071733;28;20028;-74
2022/05/05 00:31:42;;;;;;;26.70;20.40;;;10.50;99.90;;;;;;5069854;28;20396;-75
2022/05/05 00:34:08;;;;;;;21.42;18.13;;;10.50;99.90;;;;;;5071749;28;20085;-74
2022/05/05 00:36:33;;;;;;;18.50;16.35;;;10.40;99.90;;;;;;5071688;28;20480;-73
2022/05/05 00:38:59;;;;;;;21.95;18.20;;;10.40;99.90;;;;;;5071690;28;20035;-74
2022/05/05 00:41:24;;;;;;;26.75;18.88;;;10.50;99.90;;;;;;5069835;28;20150;-74
2022/05/05 00:43:51;;;;;;;19.98;17.13;;;10.50;99.90;;;;;;5071641;28;20055;-76
2022/05/05 00:46:16;;;;;;;18.88;15.75;;;10.40;99.90;;;;;;5071597;28;20033;-77
2022/05/05 00:48:45;;;;;;;21.27;18.45;;;10.40;99.90;;;;;;5071305;28;20031;-76
2022/05/05 00:51:10;;;;;;;18.15;15.55;;;10.40;99.90;;;;;;5069564;28;20021;-76
2022/05/05 00:53:36;;;;;;;16.33;14.35;;;10.40;99.90;;;;;;5071415;28;20024;-75
2022/05/05 00:56:11;;;;;;;24.65;18.98;;;10.40;99.90;;;;;;5070185;28;20025;-75
2022/05/05 00:58:37;;;;;;;27.25;19.85;;;10.30;99.90;;;;;;5071420;28;20039;-75
2022/05/05 01:01:04;;;;;;;22.33;19.40;;;10.20;99.90;;;;;;5071153;28;20039;-76
2022/05/05 01:03:35;;;;;;;22.85;18.17;;;10.30;99.90;;;;;;5070071;28;20604;-76
2022/05/05 01:06:06;;;;;;;20.05;17.30;;;10.20;99.90;;;;;;5071379;28;20082;-76
2022/05/05 01:08:33;;;;;;;19.50;16.25;;;10.30;99.90;;;;;;5072917;28;20017;-77
2022/05/05 01:10:58;;;;;;;19.58;16.60;;;10.30;99.90;;;;;;5071465;28;20021;-76
2022/05/05 01:13:27;;;;;;;24.92;19.40;;;10.30;99.90;;;;;;5071330;28;20036;-75
2022/05/05 01:15:54;;;;;;;26.45;19.45;;;10.10;99.90;;;;;;5070114;28;20028;-76
2022/05/05 01:18:19;;;;;;;23.30;18.52;;;10.10;99.90;;;;;;5070051;28;20126;-76
2022/05/05 01:20:47;;;;;;;19.55;17.30;;;10.10;99.90;;;;;;5070656;28;20040;-76
2022/05/05 01:23:13;;;;;;;18.25;15.65;;;10.10;99.90;;;;;;5071340;28;20024;-76
2022/05/05 01:28:24;;;;;;;17.27;15.40;;;10.20;99.90;;;;;;5071046;28;20036;-76
2022/05/05 01:30:50;;;;;;;17.73;14.15;;;10.10;99.90;;;;;;5070601;28;20020;-77
2022/05/05 01:33:27;;;;;;;19.95;16.40;;;10.10;99.90;;;;;;5071171;28;20029;-75
2022/05/05 01:35:55;;;;;;;19.23;15.10;;;10.00;99.90;;;;;;5059313;28;20555;-76
2022/05/05 01:38:23;;;;;;;19.20;16.08;;;10.00;99.90;;;;;;5071051;28;20025;-75
2022/05/05 01:40:49;;;;;;;21.55;18.08;;;9.90;99.90;;;;;;5073896;28;20036;-75
2022/05/05 01:43:19;;;;;;;19.40;17.13;;;9.90;99.90;;;;;;5061336;28;20025;-76
2022/05/05 01:45:46;;;;;;;19.83;16.90;;;9.90;99.90;;;;;;5073632;28;20038;-76
2022/05/05 01:48:12;;;;;;;18.73;15.68;;;9.90;99.90;;;;;;5074596;28;20035;-75
2022/05/05 01:50:38;;;;;;;17.35;15.55;;;9.90;99.90;;;;;;5074179;28;20032;-76
2022/05/05 01:53:04;;;;;;;15.80;13.63;;;10.00;99.90;;;;;;5060301;28;20028;-76
2022/05/05 01:55:31;;;;;;;17.10;13.45;;;10.10;99.90;;;;;;5075080;28;20097;-75
2022/05/05 01:57:58;;;;;;;14.75;13.20;;;10.10;99.90;;;;;;5074607;28;20055;-75
2022/05/05 02:00:24;;;;;;;16.00;14.40;;;10.00;99.90;;;;;;5073983;28;20029;-75
2022/05/05 02:02:50;;;;;;;17.75;15.95;;;10.00;99.90;;;;;;5074507;28;20021;-75
2022/05/05 02:05:16;;;;;;;27.35;21.00;;;10.10;99.90;;;;;;5073247;28;20028;-75
2022/05/05 02:07:43;;;;;;;18.60;16.58;;;9.70;99.90;;;;;;5072958;28;20032;-75
2022/05/05 02:10:12;;;;;;;29.42;21.92;;;9.50;99.90;;;;;;5074365;28;20028;-77
2022/05/05 02:12:38;;;;;;;34.83;24.08;;;9.40;99.90;;;;;;5073013;28;20078;-75
2022/05/05 02:15:06;;;;;;;18.52;16.00;;;9.40;99.90;;;;;;5074552;28;20401;-75
2022/05/05 02:17:32;;;;;;;19.65;17.52;;;9.40;99.90;;;;;;5074253;28;20025;-75
2022/05/05 02:19:59;;;;;;;18.63;16.73;;;9.60;99.90;;;;;;5072911;28;20032;-77
2022/05/05 02:22:24;;;;;;;21.58;16.60;;;9.70;99.90;;;;;;5074690;28;20038;-77
2022/05/05 02:24:50;;;;;;;20.13;17.95;;;9.80;99.90;;;;;;5075595;28;20131;-77
2022/05/05 02:27:16;;;;;;;18.45;16.50;;;9.80;99.90;;;;;;5073837;28;20097;-75
2022/05/05 02:29:42;;;;;;;19.65;17.63;;;9.80;99.90;;;;;;5074023;28;20067;-75
2022/05/05 02:32:08;;;;;;;23.90;18.58;;;9.80;99.90;;;;;;5073300;28;20025;-76
2022/05/05 02:34:34;;;;;;;18.20;16.33;;;9.80;99.90;;;;;;5072684;28;20437;-76
2022/05/05 02:39:43;;;;;;;17.25;15.45;;;9.80;99.90;;;;;;5073827;28;20406;-76
2022/05/05 02:42:09;;;;;;;18.30;16.48;;;9.90;99.90;;;;;;5071997;28;20025;-76
2022/05/05 02:44:34;;;;;;;17.00;15.00;;;10.00;99.90;;;;;;5073641;28;20028;-74
2022/05/05 02:47:00;;;;;;;17.55;15.75;;;10.00;99.90;;;;;;5058292;28;20035;-75
2022/05/05 02:49:27;;;;;;;18.35;16.45;;;10.00;99.90;;;;;;5073601;28;20059;-77
2022/05/05 02:51:53;;;;;;;17.63;15.73;;;10.00;99.90;;;;;;5067376;28;20546;-76
2022/05/05 02:57:03;;;;;;;23.52;19.25;;;10.10;99.90;;;;;;5062548;28;20116;-77
2022/05/05 02:59:28;;;;;;;20.95;17.20;;;10.10;99.90;;;;;;5075892;28;20103;-75
2022/05/05 03:01:54;;;;;;;24.27;18.73;;;10.10;99.90;;;;;;5071423;28;20055;-75
2022/05/05 03:04:19;;;;;;;25.80;19.45;;;9.80;99.90;;;;;;5073250;28;20202;-75
2022/05/05 03:06:45;;;;;;;29.48;21.58;;;9.70;99.90;;;;;;5073009;28;20033;-75
2022/05/05 03:09:10;;;;;;;31.88;22.58;;;9.50;99.90;;;;;;5073301;28;20033;-75
2022/05/05 03:11:36;;;;;;;23.20;19.55;;;9.40;99.90;;;;;;5072497;28;20498;-75
2022/05/05 03:14:01;;;;;;;26.83;21.48;;;9.30;99.90;;;;;;5071802;28;20056;-76
2022/05/05 03:16:27;;;;;;;31.77;23.52;;;9.30;99.90;;;;;;5073120;28;20103;-76
2022/05/05 03:18:52;;;;;;;27.73;21.73;;;9.20;99.90;;;;;;5072948;28;20107;-76
2022/05/05 03:21:18;;;;;;;21.67;19.25;;;9.30;99.90;;;;;;5071193;28;20159;-76
2022/05/05 03:23:43;;;;;;;18.38;16.30;;;9.40;99.90;;;;;;5072924;28;20025;-75
2022/05/05 03:26:09;;;;;;;21.63;17.75;;;9.50;99.90;;;;;;5072944;28;20032;-75
2022/05/05 03:28:34;;;;;;;21.92;18.90;;;9.70;99.90;;;;;;5058995;28;20068;-75
2022/05/05 03:31:00;;;;;;;26.75;21.23;;;9.70;99.90;;;;;;5070908;28;20066;-75
2022/05/05 03:33:25;;;;;;;30.13;22.20;;;9.70;99.90;;;;;;5071394;28;20506;-74
2022/05/05 03:35:51;;;;;;;29.65;22.67;;;9.50;99.90;;;;;;5072594;28;20028;-75
2022/05/05 03:38:16;;;;;;;31.25;22.45;;;9.40;99.90;;;;;;5069786;28;20043;-75
2022/05/05 03:40:42;;;;;;;22.52;19.73;;;9.40;99.90;;;;;;5060071;28;20549;-75
2022/05/05 03:43:07;;;;;;;22.92;19.02;;;9.50;99.90;;;;;;5072817;28;20033;-74
2022/05/05 03:45:33;;;;;;;26.27;19.50;;;9.70;99.90;;;;;;5064607;28;20033;-74
2022/05/05 03:47:58;;;;;;;21.13;18.88;;;9.90;99.90;;;;;;5066829;28;20104;-74
2022/05/05 03:50:24;;;;;;;25.15;20.23;;;10.00;99.90;;;;;;5072067;28;20505;-74
2022/05/05 03:52:49;;;;;;;20.67;18.30;;;10.10;99.90;;;;;;5072298;28;20028;-75
2022/05/05 03:55:15;;;;;;;26.63;21.10;;;10.20;99.90;;;;;;5072457;28;20025;-75
2022/05/05 03:57:40;;;;;;;26.33;22.27;;;10.20;99.90;;;;;;5072211;28;20029;-75
2022/05/05 04:00:07;;;;;;;30.50;24.92;;;10.20;99.90;;;;;;5071915;28;20485;-74
2022/05/05 04:02:32;;;;;;;26.27;21.83;;;10.10;99.90;;;;;;5070893;28;20043;-73
2022/05/05 04:04:57;;;;;;;31.23;23.60;;;10.20;99.90;;;;;;5072176;28;20033;-74
2022/05/05 04:07:23;;;;;;;46.22;28.23;;;10.30;99.90;;;;;;5071935;28;20040;-77
2022/05/05 04:09:48;;;;;;;43.05;29.30;;;10.20;99.90;;;;;;5070952;28;20024;-74
2022/05/05 04:12:14;;;;;;;65.07;36.05;;;10.10;99.90;;;;;;5069547;28;20036;-75
2022/05/05 04:14:39;;;;;;;60.20;32.38;;;10.00;99.90;;;;;;5070450;28;20055;-76
2022/05/05 04:17:05;;;;;;;113.15;37.90;;;10.00;99.90;;;;;;5070621;28;20371;-75
2022/05/05 04:19:31;;;;;;;153.38;43.53;;;9.90;99.90;;;;;;5071945;28;20505;-76
2022/05/05 04:21:56;;;;;;;225.95;47.13;;;9.80;99.90;;;;;;5071072;28;20028;-75
2022/05/05 04:24:22;;;;;;;230.13;52.17;;;9.70;99.90;;;;;;5063571;28;20028;-76
2022/05/05 04:26:47;;;;;;;358.52;56.75;;;9.80;99.90;;;;;;5065219;28;20033;-76
2022/05/05 04:29:13;;;;;;;260.02;46.83;;;9.90;99.90;;;;;;5071798;28;20162;-76
2022/05/05 04:31:41;;;;;;;325.95;52.40;;;9.80;99.90;;;;;;5069738;28;20531;-74
2022/05/05 04:34:08;;;;;;;272.20;54.50;;;9.80;99.90;;;;;;5058862;28;20086;-76
2022/05/05 04:36:35;;;;;;;210.30;49.88;;;9.90;99.90;;;;;;5070916;28;20040;-76
2022/05/05 04:39:03;;;;;;;369.40;61.50;;;9.90;99.90;;;;;;5059105;28;20459;-75
2022/05/05 04:41:28;;;;;;;163.27;41.28;;;10.00;99.90;;;;;;5069718;28;20402;-75
2022/05/05 04:43:54;;;;;;;172.50;46.90;;;10.00;99.90;;;;;;5071617;28;20024;-75
2022/05/05 04:46:19;;;;;;;115.53;41.17;;;10.00;99.90;;;;;;5071603;28;20031;-76
2022/05/05 04:48:45;;;;;;;84.45;37.83;;;10.00;99.90;;;;;;5071426;28;20037;-76
2022/05/05 04:51:10;;;;;;;59.63;35.40;;;10.10;99.90;;;;;;5069760;28;20070;-76
2022/05/05 04:53:36;;;;;;;34.78;27.10;;;10.10;99.90;;;;;;5071501;28;20035;-75
2022/05/05 04:56:02;;;;;;;38.53;28.73;;;10.20;99.90;;;;;;5071797;28;20064;-74
2022/05/05 04:58:27;;;;;;;56.05;33.53;;;10.30;99.90;;;;;;5070058;28;20556;-74
2022/05/05 05:00:53;;;;;;;40.17;30.92;;;10.30;99.90;;;;;;5070735;28;20024;-75
2022/05/05 05:03:39;;;;;;;65.85;36.92;;;10.20;99.90;;;;;;5071442;28;20025;-74
2022/05/05 05:06:06;;;;;;;43.53;30.95;;;10.30;99.90;;;;;;5068693;28;20051;-74
2022/05/05 05:08:33;;;;;;;35.63;28.27;;;10.40;99.90;;;;;;5069853;28;20494;-74
2022/05/05 05:10:58;;;;;;;45.10;31.23;;;10.60;99.90;;;;;;5070529;28;20031;-75
2022/05/05 05:13:24;;;;;;;56.72;35.63;;;10.60;99.90;;;;;;5072747;28;20029;-74
2022/05/05 05:15:50;;;;;;;56.63;33.33;;;10.60;99.90;;;;;;5073782;28;20028;-72
2022/05/05 05:18:15;;;;;;;104.05;46.22;;;10.60;99.90;;;;;;5075051;28;20498;-74
2022/05/05 05:20:41;;;;;;;118.80;43.85;;;10.40;99.90;;;;;;5073257;28;20111;-75
2022/05/05 05:23:06;;;;;;;92.28;39.58;;;10.30;99.90;;;;;;5073691;28;20490;-74
2022/05/05 05:25:32;;;;;;;81.13;36.75;;;10.20;99.90;;;;;;5073566;28;20024;-74
2022/05/05 05:27:57;;;;;;;58.75;33.35;;;10.30;99.90;;;;;;5074700;28;20031;-74
2022/05/05 05:30:24;;;;;;;76.85;37.10;;;10.30;99.90;;;;;;5072892;28;20020;-74
2022/05/05 05:32:49;;;;;;;68.38;35.83;;;10.40;99.90;;;;;;5074827;28;20390;-74
2022/05/05 05:35:15;;;;;;;74.93;35.65;;;10.40;99.90;;;;;;5074811;28;20020;-74
2022/05/05 05:37:40;;;;;;;58.05;32.65;;;10.40;99.90;;;;;;5074876;28;20096;-74
2022/05/05 05:40:06;;;;;;;50.03;31.75;;;10.50;99.90;;;;;;5071048;28;20059;-74
2022/05/05 05:42:32;;;;;;;58.50;33.50;;;10.70;99.90;;;;;;5064355;28;20028;-74
2022/05/05 05:44:57;;;;;;;63.00;34.80;;;10.80;99.90;;;;;;5074654;28;20031;-75
2022/05/05 05:47:23;;;;;;;64.15;34.65;;;10.70;99.90;;;;;;5064108;28;20041;-74
2022/05/05 05:49:49;;;;;;;58.03;34.20;;;10.60;99.90;;;;;;5071446;28;20432;-74
2022/05/05 05:52:14;;;;;;;49.53;31.27;;;10.70;99.90;;;;;;5072623;28;20016;-74
2022/05/05 05:54:39;;;;;;;228.00;46.65;;;10.80;99.90;;;;;;5069544;28;20025;-75
2022/05/05 05:57:05;;;;;;;315.50;50.90;;;11.00;99.90;;;;;;5063430;28;20341;-72
2022/05/05 05:59:31;;;;;;;240.88;42.22;;;10.80;99.90;;;;;;5075256;28;20024;-74
2022/05/05 06:04:40;;;;;;;129.20;38.97;;;10.80;99.90;;;;;;5074250;28;20039;-73
2022/05/05 06:07:06;;;;;;;85.47;40.42;;;10.80;99.90;;;;;;5072483;28;20029;-74
2022/05/05 06:09:31;;;;;;;328.13;48.65;;;11.00;99.90;;;;;;5074148;28;20036;-74
2022/05/05 06:11:57;;;;;;;123.28;40.58;;;10.90;99.90;;;;;;5073583;28;20081;-75
2022/05/05 06:14:22;;;;;;;63.45;35.10;;;11.00;99.90;;;;;;5074338;28;20067;-75
2022/05/05 06:16:48;;;;;;;92.32;39.50;;;11.10;99.90;;;;;;5074160;28;20030;-75
2022/05/05 06:19:13;;;;;;;51.50;32.88;;;11.10;99.90;;;;;;5068266;28;20097;-74
2022/05/05 06:21:39;;;;;;;66.03;35.47;;;11.20;99.90;;;;;;5066071;28;20109;-74
2022/05/05 06:24:05;;;;;;;47.85;30.77;;;11.30;99.90;;;;;;5066632;28;20413;-74
2022/05/05 06:26:31;;;;;;;67.50;31.23;;;11.50;99.90;;;;;;5065552;28;20111;-74
2022/05/05 06:28:57;;;;;;;62.55;32.80;;;11.50;99.90;;;;;;5072333;28;20118;-74
2022/05/05 06:31:23;;;;;;;41.67;29.42;;;11.50;99.90;;;;;;5073400;28;20020;-74
2022/05/05 06:33:49;;;;;;;37.25;27.75;;;11.50;99.90;;;;;;5066785;28;20021;-74
2022/05/05 06:36:16;;;;;;;35.45;26.45;;;11.70;99.90;;;;;;5066883;28;20020;-74
2022/05/05 06:38:41;;;;;;;39.10;28.15;;;11.70;99.90;;;;;;5072346;28;20024;-74
2022/05/05 06:41:08;;;;;;;44.53;28.55;;;11.70;99.90;;;;;;5073036;28;20557;-75
2022/05/05 06:43:34;;;;;;;82.05;33.03;;;11.80;99.90;;;;;;5059864;28;20031;-74
2022/05/05 06:46:00;;;;;;;38.53;28.17;;;11.70;99.90;;;;;;5072424;28;20029;-75
2022/05/05 06:48:26;;;;;;;38.95;28.73;;;11.70;99.90;;;;;;5073327;28;20028;-75
2022/05/05 06:50:51;;;;;;;34.22;26.27;;;12.00;99.90;;;;;;5059985;28;20109;-75
2022/05/05 06:53:17;;;;;;;45.67;30.88;;;12.10;99.90;;;;;;5072839;28;20032;-75
2022/05/05 06:55:44;;;;;;;44.25;29.92;;;12.20;99.90;;;;;;5073414;28;20081;-75
2022/05/05 06:58:09;;;;;;;35.17;27.10;;;12.20;99.90;;;;;;5071377;28;20031;-75
2022/05/05 07:03:19;;;;;;;32.05;24.73;;;11.90;99.90;;;;;;5061425;28;20032;-75
2022/05/05 07:05:45;;;;;;;37.00;26.88;;;12.10;99.90;;;;;;5073226;28;20036;-75
2022/05/05 07:08:11;;;;;;;37.78;28.02;;;12.40;99.90;;;;;;5073172;28;20115;-76
2022/05/05 07:10:54;;;;;;;33.38;26.92;;;12.40;99.90;;;;;;5072517;28;20021;-76
2022/05/05 07:13:22;;;;;;;35.80;26.83;;;12.30;99.90;;;;;;5073176;28;20024;-76
2022/05/05 07:15:48;;;;;;;30.00;24.90;;;12.40;99.90;;;;;;5073110;28;20492;-76
2022/05/05 07:18:13;;;;;;;41.15;31.63;;;12.40;99.90;;;;;;5060925;28;20062;-76
2022/05/05 07:20:39;;;;;;;36.35;28.17;;;12.40;99.90;;;;;;5069940;28;20111;-75
2022/05/05 07:23:07;;;;;;;34.03;26.60;;;12.40;99.90;;;;;;5072892;28;20025;-76
2022/05/05 07:25:32;;;;;;;51.60;28.85;;;12.60;99.90;;;;;;5071532;28;20028;-76
2022/05/05 07:27:58;;;;;;;28.75;24.77;;;12.70;99.90;;;;;;5061616;28;20036;-76
2022/05/05 07:30:23;;;;;;;43.22;27.25;;;12.80;99.90;;;;;;5069785;28;20032;-75
2022/05/05 07:32:49;;;;;;;29.27;26.10;;;13.00;99.90;;;;;;5072831;28;20486;-74
2022/05/05 07:35:15;;;;;;;33.03;25.30;;;13.40;99.90;;;;;;5072686;28;20046;-74
2022/05/05 07:37:41;;;;;;;24.75;22.15;;;13.50;99.90;;;;;;5071495;28;20035;-76
2022/05/05 07:40:07;;;;;;;25.90;22.88;;;13.40;99.90;;;;;;5072446;28;20024;-76
2022/05/05 07:42:33;;;;;;;27.42;23.58;;;13.50;99.90;;;;;;5070823;28;20023;-75
2022/05/05 07:44:58;;;;;;;25.83;22.67;;;13.50;99.90;;;;;;5072428;28;20385;-76
2022/05/05 07:47:25;;;;;;;25.23;22.10;;;13.60;99.90;;;;;;5062011;28;20029;-74
2022/05/05 07:49:51;;;;;;;24.95;21.05;;;13.70;99.90;;;;;;5065697;28;20120;-75
2022/05/05 07:52:16;;;;;;;27.85;23.00;;;13.60;99.90;;;;;;5071220;28;20111;-76
2022/05/05 07:54:44;;;;;;;23.58;20.88;;;13.70;99.90;;;;;;5072087;28;20036;-75
2022/05/05 07:57:12;;;;;;;25.45;20.65;;;13.80;99.90;;;;;;5072209;28;20020;-76
2022/05/05 07:59:38;;;;;;;23.60;21.08;;;14.00;99.90;;;;;;5072181;28;20165;-76
2022/05/05 08:02:08;;;;;;;28.25;23.95;;;14.00;99.90;;;;;;5071646;28;20501;-75
2022/05/05 08:04:33;;;;;;;24.23;21.63;;;14.10;99.90;;;;;;5070796;28;20032;-76
2022/05/05 08:06:59;;;;;;;25.42;22.63;;;14.10;99.90;;;;;;5072102;28;20065;-75
2022/05/05 08:09:25;;;;;;;25.58;22.05;;;13.90;99.90;;;;;;5058686;28;20063;-76
2022/05/05 08:11:50;;;;;;;26.13;22.63;;;13.70;99.90;;;;;;5071463;28;20031;-76
2022/05/05 08:14:16;;;;;;;31.45;24.83;;;14.00;99.90;;;;;;5065416;28;20029;-75
2022/05/05 08:16:42;;;;;;;29.60;24.17;;;13.60;99.90;;;;;;5063945;28;20047;-75
2022/05/05 08:19:07;;;;;;;28.60;24.35;;;13.60;99.90;;;;;;5070646;28;20535;-75
2022/05/05 08:21:33;;;;;;;29.48;24.23;;;13.70;99.90;;;;;;5071350;28;20036;-75
2022/05/05 08:29:27;;;;;;;28.48;24.38;;;13.40;99.90;;;;;;5071831;28;20031;-75
2022/05/05 08:31:53;;;;;;;27.20;24.30;;;13.90;99.90;;;;;;5071074;28;20390;-75
2022/05/05 08:34:19;;;;;;;31.23;24.58;;;14.00;99.90;;;;;;5071799;28;20024;-75
2022/05/05 08:36:45;;;;;;;32.25;25.20;;;14.20;99.90;;;;;;5071580;28;20027;-75
2022/05/05 08:39:11;;;;;;;30.52;26.40;;;13.90;99.90;;;;;;5071698;28;20068;-75
2022/05/05 08:41:39;;;;;;;29.92;25.08;;;14.00;99.90;;;;;;5069844;28;20070;-75
2022/05/05 08:44:04;;;;;;;28.63;25.52;;;14.10;99.90;;;;;;5070210;28;20057;-75
2022/05/05 08:46:33;;;;;;;29.23;25.95;;;14.00;99.90;;;;;;5071523;28;20052;-75
2022/05/05 08:49:04;;;;;;;26.10;23.30;;;14.10;99.90;;;;;;5071106;28;20071;-75
2022/05/05 08:51:44;;;;;;;24.50;21.90;;;14.30;99.90;;;;;;5071050;28;20021;-77
2022/05/05 08:54:21;;;;;;;22.17;19.92;;;14.30;99.90;;;;;;5070509;28;20021;-75
2022/05/05 08:56:50;;;;;;;22.38;19.80;;;14.60;99.90;;;;;;5070208;28;20028;-75
2022/05/05 08:59:17;;;;;;;21.95;19.65;;;14.70;99.90;;;;;;5073044;28;20102;-74
2022/05/05 09:01:43;;;;;;;22.63;19.88;;;14.70;99.90;;;;;;5070944;28;20017;-75
2022/05/05 09:04:09;;;;;;;20.80;18.58;;;14.60;99.90;;;;;;5071409;28;20023;-75
2022/05/05 09:06:47;;;;;;;19.80;17.80;;;14.70;99.90;;;;;;5071225;28;20052;-75
2022/05/05 09:09:28;;;;;;;21.58;18.80;;;14.80;99.90;;;;;;5070131;28;20024;-75
2022/05/05 09:12:10;;;;;;;19.52;17.40;;;14.80;99.90;;;;;;5059107;28;20049;-74
2022/05/05 09:14:55;;;;;;;18.55;16.77;;;15.20;99.90;;;;;;5056961;28;20021;-75
2022/05/05 09:17:23;;;;;;;17.08;15.45;;;15.70;99.90;;;;;;5066456;28;20037;-75
2022/05/05 09:19:53;;;;;;;15.95;14.35;;;16.10;99.90;;;;;;5069975;28;20036;-75
2022/05/05 09:22:24;;;;;;;14.90;13.38;;;16.30;99.90;;;;;;5069473;28;20033;-74
2022/05/05 09:24:51;;;;;;;17.13;14.70;;;16.70;99.90;;;;;;5071297;28;20053;-75
2022/05/05 09:27:30;;;;;;;16.90;15.20;;;16.80;99.90;;;;;;5071062;28;20037;-74
2022/05/05 09:30:02;;;;;;;17.48;14.95;;;16.40;99.90;;;;;;5071267;28;20028;-75
2022/05/05 09:32:29;;;;;;;13.90;12.43;;;16.10;99.90;;;;;;5057349;28;20482;-75
2022/05/05 09:34:59;;;;;;;13.85;10.32;;;16.30;99.90;;;;;;5066021;28;20090;-75
2022/05/05 09:37:25;;;;;;;11.98;10.77;;;17.10;99.90;;;;;;5071044;28;20029;-75
2022/05/05 09:39:58;;;;;;;13.27;11.23;;;17.20;99.90;;;;;;5071063;28;20540;-75
2022/05/05 09:42:40;;;;;;;13.50;12.07;;;17.00;99.90;;;;;;5059382;28;20020;-75
2022/05/05 09:45:17;;;;;;;12.88;11.23;;;16.80;99.90;;;;;;5071086;28;20021;-75
2022/05/05 09:47:53;;;;;;;12.82;10.68;;;16.70;99.90;;;;;;5070883;28;20036;-75
2022/05/05 09:50:20;;;;;;;;;;;16.90;99.90;;;;;;5056225;28;20025;-75
2022/05/05 09:58:19;;;;;;;9.32;8.45;;;17.00;99.90;;;;;;5072144;28;20126;-75
2022/05/05 10:00:55;;;;;;;9.00;8.10;;;17.60;99.90;;;;;;5072188;28;20463;-75
2022/05/05 10:06:42;;;;;;;7.90;6.80;;;17.10;99.90;;;;;;5074718;28;20094;-75
2022/05/05 10:09:13;;;;;;;9.98;7.45;;;17.50;99.90;;;;;;5061351;28;20028;-75
2022/05/05 10:11:39;;;;;;;8.45;7.50;;;17.90;99.90;;;;;;5073748;28;20023;-75
2022/05/05 10:14:06;;;;;;;7.28;6.57;;;18.10;99.90;;;;;;5073027;28;20396;-75
2022/05/05 10:16:32;;;;;;;9.15;6.55;;;18.20;99.90;;;;;;5073004;28;20389;-75
2022/05/05 10:19:03;;;;;;;6.97;6.20;;;17.80;99.90;;;;;;5072166;28;20028;-75
2022/05/05 10:21:34;;;;;;;6.70;5.70;;;17.70;99.90;;;;;;5064455;28;20066;-74
2022/05/05 10:24:10;;;;;;;5.90;5.30;;;17.50;99.90;;;;;;5074430;28;20614;-75
2022/05/05 10:26:36;;;;;;;6.68;6.00;;;17.30;99.90;;;;;;5073820;28;20021;-74
2022/05/05 10:29:02;;;;;;;5.32;4.93;;;17.50;99.90;;;;;;5074007;28;20127;-74
2022/05/05 10:31:31;;;;;;;5.03;4.63;;;17.60;99.90;;;;;;5073349;28;20444;-75
2022/05/05 10:34:16;;;;;;;5.43;4.55;;;17.50;99.90;;;;;;5073781;28;20103;-75
2022/05/05 10:36:58;;;;;;;5.65;5.15;;;17.50;99.90;;;;;;5073725;28;20024;-74
2022/05/05 10:39:26;;;;;;;8.20;4.40;;;17.60;99.90;;;;;;5072604;28;20043;-75
2022/05/05 10:42:12;;;;;;;6.00;4.80;;;18.00;99.90;;;;;;5071862;28;20020;-75
2022/05/05 10:45:03;;;;;;;5.55;4.30;;;17.70;99.90;;;;;;5072432;28;20028;-75
2022/05/05 10:47:55;;;;;;;5.20;4.70;;;18.00;99.90;;;;;;5063459;28;20040;-75
2022/05/05 10:51:02;;;;;;;5.00;4.50;;;18.60;99.90;;;;;;5059740;28;20031;-75
2022/05/05 10:53:37;;;;;;;5.57;5.07;;;18.70;99.90;;;;;;5060692;28;20025;-74
2022/05/05 10:56:27;;;;;;;5.15;4.65;;;18.90;99.90;;;;;;5073985;28;20013;-75
2022/05/05 10:58:56;;;;;;;6.13;4.97;;;19.00;99.90;;;;;;5073545;28;20017;-76
2022/05/05 11:01:22;;;;;;;6.43;4.72;;;19.30;99.90;;;;;;5072824;28;20129;-75
2022/05/05 11:04:17;;;;;;;7.05;4.90;;;19.60;99.90;;;;;;5071972;28;20414;-75
2022/05/05 11:06:45;;;;;;;6.43;4.80;;;19.30;99.90;;;;;;5062323;28;20709;-75
2022/05/05 11:09:34;;;;;;;5.13;4.72;;;19.70;99.90;;;;;;5065836;28;20428;-75
2022/05/05 11:12:15;;;;;;;9.13;5.10;;;19.80;99.90;;;;;;5072428;28;20020;-75
2022/05/05 11:23:32;;;;;;;9.65;4.65;;;19.50;99.90;;;;;;5067114;28;20039;-75
2022/05/05 11:26:00;;;;;;;5.90;5.30;;;19.50;99.90;;;;;;5072644;28;20028;-76
2022/05/05 11:28:29;;;;;;;5.20;4.70;;;19.70;99.90;;;;;;5072348;28;20570;-76
2022/05/05 11:30:55;;;;;;;4.75;4.35;;;19.70;99.90;;;;;;5071543;28;20077;-75
2022/05/05 11:33:21;;;;;;;5.82;4.70;;;19.60;99.90;;;;;;5072055;28;20027;-75
2022/05/05 11:35:55;;;;;;;4.32;4.03;;;18.80;99.90;;;;;;5072746;28;20024;-74
2022/05/05 11:38:23;;;;;;;5.63;5.00;;;19.00;99.90;;;;;;5057734;28;20482;-75
2022/05/05 11:41:04;;;;;;;5.18;4.28;;;19.10;99.90;;;;;;5061818;28;20021;-75
2022/05/05 11:46:16;;;;;;;5.80;5.20;;;19.50;99.90;;;;;;5072564;28;20028;-75
2022/05/05 11:48:43;;;;;;;4.78;4.38;;;19.50;99.90;;;;;;5072316;28;20271;-74
2022/05/05 11:51:10;;;;;;;4.97;4.47;;;19.80;99.90;;;;;;5058498;28;20132;-75
2022/05/05 11:53:35;;;;;;;5.95;4.68;;;20.20;99.90;;;;;;5063324;28;20024;-75
2022/05/05 11:56:01;;;;;;;5.20;4.53;;;20.40;99.90;;;;;;5065237;28;20021;-75
2022/05/05 12:04:02;;;;;;;5.95;5.35;;;19.80;99.90;;;;;;5072223;28;20398;-75
2022/05/05 12:06:28;;;;;;;5.55;5.05;;;20.00;99.90;;;;;;5070920;28;20039;-75
2022/05/05 12:08:55;;;;;;;5.72;5.22;;;20.00;99.90;;;;;;5070747;28;20455;-75
2022/05/05 12:11:21;;;;;;;6.10;5.30;;;20.10;99.90;;;;;;5057072;28;20021;-74
2022/05/05 12:13:49;;;;;;;5.72;5.00;;;20.40;99.90;;;;;;5071866;28;20443;-76
2022/05/05 12:16:18;;;;;;;5.55;5.05;;;21.30;99.90;;;;;;5059134;28;20090;-75
2022/05/05 12:18:51;;;;;;;7.20;5.10;;;21.30;99.90;;;;;;5058365;28;20029;-74
2022/05/05 12:21:23;;;;;;;6.80;5.28;;;21.20;99.90;;;;;;5071440;28;20497;-75
2022/05/05 12:23:56;;;;;;;6.60;5.38;;;20.90;99.90;;;;;;5057740;28;20028;-75
2022/05/05 12:26:30;;;;;;;5.55;5.05;;;21.10;99.90;;;;;;5061502;28;20475;-74
2022/05/05 12:28:56;;;;;;;5.85;5.30;;;21.20;99.90;;;;;;5069975;28;20033;-76
2022/05/05 12:31:23;;;;;;;6.40;4.78;;;21.40;99.90;;;;;;5071173;28;20032;-75
2022/05/05 12:33:49;;;;;;;5.22;4.65;;;21.60;99.90;;;;;;5071679;28;20458;-76
2022/05/05 12:36:14;;;;;;;5.45;4.80;;;21.00;99.90;;;;;;5070588;28;20027;-75
2022/05/05 12:38:40;;;;;;;5.18;4.53;;;20.70;99.90;;;;;;5071592;28;20028;-75
2022/05/05 12:41:09;;;;;;;4.85;4.40;;;20.40;99.90;;;;;;5071203;28;20445;-75
2022/05/05 12:43:34;;;;;;;6.18;4.85;;;20.90;99.90;;;;;;5071599;28;20036;-75
2022/05/05 12:46:04;;;;;;;6.30;4.90;;;21.00;99.90;;;;;;5070014;28;20098;-75
2022/05/05 12:48:30;;;;;;;6.05;4.80;;;21.30;99.90;;;;;;5069611;28;20020;-76
2022/05/05 12:50:55;;;;;;;4.88;4.40;;;21.70;99.90;;;;;;5068330;28;20021;-74
2022/05/05 13:01:44;;;;;;;5.93;5.35;;;22.60;99.90;;;;;;5058743;28;20492;-76
2022/05/05 13:04:14;;;;;;;5.40;4.90;;;22.20;99.90;;;;;;5071703;28;20044;-75
2022/05/05 13:06:41;;;;;;;5.72;5.22;;;21.30;99.90;;;;;;5070305;28;20432;-75
2022/05/05 13:09:08;;;;;;;5.95;4.97;;;21.00;99.90;;;;;;5057934;28;20367;-75
2022/05/05 13:11:46;;;;;;;5.85;5.35;;;20.50;99.90;;;;;;5070423;28;20427;-74
2022/05/05 13:14:12;;;;;;;6.70;5.18;;;20.70;99.90;;;;;;5054836;28;20037;-75
2022/05/05 13:16:38;;;;;;;6.07;5.47;;;20.50;99.90;;;;;;5061853;28;20446;-75
2022/05/05 13:19:04;;;;;;;6.47;5.57;;;20.30;99.90;;;;;;5058038;28;20029;-75
2022/05/05 13:21:33;;;;;;;5.65;5.13;;;20.20;99.90;;;;;;5069366;28;20024;-74
2022/05/05 13:23:59;;;;;;;6.82;6.07;;;20.20;99.90;;;;;;5070067;28;20024;-75
2022/05/05 13:26:25;;;;;;;6.05;5.55;;;20.20;99.90;;;;;;5069860;28;20115;-74
2022/05/05 13:28:51;;;;;;;6.22;5.55;;;20.10;99.90;;;;;;5070999;28;20016;-74
2022/05/05 13:31:16;;;;;;;5.80;5.20;;;20.20;99.90;;;;;;5070515;28;20021;-74
2022/05/05 13:33:42;;;;;;;6.85;6.13;;;20.00;99.90;;;;;;5066134;28;20405;-75